NO-0052 weather

Public forecast

Using degrees Celsius for public forecast. Weather courtesy of forecast.io.

Closest aviation weather report (METAR) to Kristiansund Heliport, Hospital

Closest report is Kristiansund Airport (Kvernberget), 2.8 nm (5.1 km) E. Retrieved 2020/08/14 13:20 UTC (18 minutes ago):

ENKB 141320Z 25010KT 200V270 9999 SCT009 BKN011 15/13 Q1014 RMK WIND 745FT 26013KT

Closest aviation forecast (TAF) to Kristiansund Heliport, Hospital

Forecast is more than 12 hours old.

Closest forecast is Molde Airport, 25.2 nm (46.6 km) SSW. Retrieved 2011/03/08 08:45 UTC (9 years ago):

TAF TAF ESDF 0808 FCNO33 ENMI 080800 RRC TAF ENML 080800Z 0809/0818 21015KT 9999 FEW030 BKN050 TEMPO 0809/0818 21022G35KT BECMG 0815/0818 21022G35KT TEMPO 0815/0818 4000 RADZ BKN012